Time;durP1;ratioP1;P1;durP2;ratioP2;P2;SDS_P1;SDS_P2;PMS_P1;PMS_P2;Temp;Humidity;BMP_temperature;BMP_pressure;BME280_temperature;BME280_humidity;BME280_pressure;Samples;Min_cycle;Max_cycle;Signal;HPM_P1;HPM_P2
2022/06/16 00:00:23;;;;;;;1.23;0.97;;;18.70;87.50;;;;;;5075039;28;20445;-80
2022/06/16 00:02:52;;;;;;;1.10;0.80;;;18.60;87.50;;;;;;5074983;28;20445;-80
2022/06/16 00:05:21;;;;;;;0.70;0.60;;;18.60;87.50;;;;;;5074756;28;20452;-80
2022/06/16 00:07:48;;;;;;;1.17;1.00;;;18.60;84.50;;;;;;5074885;28;20448;-80
2022/06/16 00:10:16;;;;;;;1.13;1.10;;;18.60;84.70;;;;;;5074870;28;20456;-80
2022/06/16 00:12:43;;;;;;;1.73;1.43;;;18.60;84.90;;;;;;5074757;28;20448;-80
2022/06/16 00:15:12;;;;;;;0.60;0.60;;;18.60;82.20;;;;;;5074593;28;20491;-80
2022/06/16 00:17:41;;;;;;;1.20;0.60;;;18.60;83.50;;;;;;5074372;28;20821;-80
2022/06/16 00:20:09;;;;;;;0.70;0.70;;;18.60;84.50;;;;;;5074649;28;20445;-80
2022/06/16 00:22:36;;;;;;;2.57;1.10;;;18.60;84.00;;;;;;5074581;28;20457;-80
2022/06/16 00:25:05;;;;;;;0.80;0.73;;;18.60;83.50;;;;;;5074482;28;20472;-80
2022/06/16 00:27:32;;;;;;;2.07;0.73;;;18.50;83.00;;;;;;5074549;28;20455;-80
2022/06/16 00:29:59;;;;;;;0.80;0.77;;;18.50;85.00;;;;;;5074463;28;20456;-80
2022/06/16 00:32:26;;;;;;;1.07;1.00;;;18.50;85.30;;;;;;5074399;28;20449;-80
2022/06/16 00:34:54;;;;;;;0.80;0.57;;;18.40;84.50;;;;;;5074056;28;20488;-80
2022/06/16 00:37:21;;;;;;;1.97;1.00;;;18.40;84.70;;;;;;5073231;28;20429;-80
2022/06/16 00:39:47;;;;;;;1.43;0.80;;;18.30;85.40;;;;;;5073934;28;20944;-80
2022/06/16 00:42:17;;;;;;;2.40;0.70;;;18.30;86.50;;;;;;5074220;28;20453;-80
2022/06/16 00:44:45;;;;;;;0.63;0.63;;;18.20;86.50;;;;;;5074066;28;20464;-80
2022/06/16 00:47:13;;;;;;;0.87;0.70;;;18.20;85.80;;;;;;5074117;28;20445;-80
2022/06/16 00:49:43;;;;;;;1.07;0.77;;;18.20;85.50;;;;;;5073779;28;20453;-80
2022/06/16 00:52:14;;;;;;;0.63;0.63;;;18.20;87.30;;;;;;5073761;28;20444;-80
2022/06/16 00:54:47;;;;;;;1.10;0.90;;;18.10;87.20;;;;;;5073892;28;20848;-80
2022/06/16 00:57:18;;;;;;;1.13;1.03;;;18.10;86.30;;;;;;5074007;28;20441;-80
2022/06/16 00:59:45;;;;;;;0.83;0.57;;;18.00;86.40;;;;;;5073916;28;20437;-80
2022/06/16 01:02:12;;;;;;;1.70;1.00;;;18.00;86.60;;;;;;5073845;28;20455;-80
2022/06/16 01:04:53;;;;;;;0.70;0.63;;;18.00;88.00;;;;;;5074130;28;20465;-80
2022/06/16 01:07:25;;;;;;;1.43;0.70;;;17.90;90.20;;;;;;5073852;28;20421;-80
2022/06/16 01:09:54;;;;;;;0.70;0.60;;;17.90;90.40;;;;;;5073765;28;20430;-80
2022/06/16 01:15:53;;;;;;;1.17;0.53;;;17.80;90.70;;;;;;5073360;28;20559;-80
2022/06/16 01:18:29;;;;;;;0.70;0.70;;;17.80;90.90;;;;;;5073365;28;20921;-80
2022/06/16 01:21:03;;;;;;;0.73;0.70;;;17.80;90.20;;;;;;5073662;28;20433;-80
2022/06/16 01:24:16;;;;;;;1.37;0.87;;;17.80;90.30;;;;;;5073288;28;20908;-80
2022/06/16 01:27:26;;;;;;;2.70;1.23;;;17.70;91.00;;;;;;5073253;28;20440;-80
2022/06/16 01:30:01;;;;;;;2.47;0.80;;;17.70;91.10;;;;;;5073490;28;20455;-80
2022/06/16 01:32:36;;;;;;;1.70;1.10;;;17.70;90.50;;;;;;5073476;28;20432;-80
2022/06/16 01:35:12;;;;;;;1.70;0.80;;;17.70;90.10;;;;;;5073732;28;20484;-80
2022/06/16 01:37:46;;;;;;;1.00;1.00;;;17.70;90.20;;;;;;5073383;28;20459;-80
2022/06/16 01:40:20;;;;;;;1.43;0.97;;;17.70;90.40;;;;;;5073136;28;20908;-80
2022/06/16 01:42:53;;;;;;;2.20;0.70;;;17.70;89.70;;;;;;5073408;28;20433;-80
2022/06/16 01:45:26;;;;;;;0.70;0.70;;;17.60;88.40;;;;;;5073276;28;20480;-80
2022/06/16 01:47:53;;;;;;;0.70;0.70;;;17.60;87.30;;;;;;5073096;28;20433;-80
2022/06/16 01:50:25;;;;;;;0.97;0.60;;;17.60;87.30;;;;;;5073032;28;20956;-80
2022/06/16 01:52:56;;;;;;;0.60;0.60;;;17.60;87.60;;;;;;5073320;28;20614;-80
2022/06/16 01:55:31;;;;;;;1.47;0.70;;;17.50;87.30;;;;;;5073465;28;20484;-80
2022/06/16 01:58:01;;;;;;;0.60;0.53;;;17.50;87.10;;;;;;5072955;28;20431;-79
2022/06/16 02:00:30;;;;;;;0.70;0.63;;;17.50;88.60;;;;;;5073205;28;20444;-80
2022/06/16 02:03:01;;;;;;;1.70;1.07;;;17.40;88.50;;;;;;5073163;28;20807;-80
2022/06/16 02:05:32;;;;;;;0.70;0.70;;;17.40;89.00;;;;;;5073106;28;20472;-80
2022/06/16 02:08:05;;;;;;;1.07;0.93;;;17.40;89.10;;;;;;5073181;28;20531;-80
2022/06/16 02:10:40;;;;;;;0.53;0.53;;;17.40;89.30;;;;;;5073114;28;20433;-80
2022/06/16 02:13:10;;;;;;;0.70;0.70;;;17.40;88.20;;;;;;5073096;28;20428;-80
2022/06/16 02:15:46;;;;;;;1.83;0.70;;;17.40;88.30;;;;;;5072908;28;20481;-80
2022/06/16 02:18:16;;;;;;;1.00;0.60;;;17.40;88.50;;;;;;5073089;28;20432;-80
2022/06/16 02:20:52;;;;;;;0.57;0.57;;;17.40;89.60;;;;;;5073000;28;20460;-80
2022/06/16 02:23:19;;;;;;;1.70;0.80;;;17.40;90.00;;;;;;5072743;28;20433;-80
2022/06/16 02:25:47;;;;;;;1.23;0.70;;;17.40;90.10;;;;;;5072767;28;20469;-80
2022/06/16 02:28:15;;;;;;;0.83;0.50;;;17.40;90.60;;;;;;5072927;28;20449;-80
2022/06/16 02:30:59;;;;;;;0.70;0.70;;;17.30;90.20;;;;;;5072867;28;20453;-81
2022/06/16 02:33:39;;;;;;;1.20;1.10;;;17.30;90.10;;;;;;5072611;28;20908;-80
2022/06/16 02:36:17;;;;;;;0.60;0.60;;;17.30;90.30;;;;;;5072433;28;20859;-80
2022/06/16 02:38:52;;;;;;;0.60;0.60;;;17.20;90.70;;;;;;5072857;28;20432;-80
2022/06/16 02:41:28;;;;;;;0.50;0.50;;;17.20;91.00;;;;;;5072858;28;20436;-80
2022/06/16 02:44:05;;;;;;;1.30;0.80;;;17.20;91.30;;;;;;5072781;28;20500;-80
2022/06/16 02:46:49;;;;;;;1.00;0.90;;;17.20;91.70;;;;;;5072828;28;20413;-80
2022/06/16 02:49:25;;;;;;;1.27;0.70;;;17.10;91.00;;;;;;5072772;28;20441;-80
2022/06/16 02:52:08;;;;;;;0.70;0.70;;;17.10;90.80;;;;;;5072794;28;20479;-80
2022/06/16 02:54:43;;;;;;;0.73;0.73;;;17.10;90.90;;;;;;5072609;28;20472;-80
2022/06/16 02:57:13;;;;;;;1.30;1.20;;;17.10;90.50;;;;;;5072639;28;20564;-80
2022/06/16 02:59:45;;;;;;;1.27;0.80;;;17.10;90.90;;;;;;5072933;28;20441;-80
2022/06/16 03:02:16;;;;;;;0.80;0.80;;;17.10;90.90;;;;;;5076223;28;20436;-80
2022/06/16 03:04:45;;;;;;;0.90;0.50;;;17.10;89.20;;;;;;5076263;28;20472;-80
2022/06/16 03:07:12;;;;;;;0.63;0.63;;;17.10;89.10;;;;;;5076102;28;20441;-80
2022/06/16 03:09:39;;;;;;;0.87;0.83;;;17.20;87.60;;;;;;5076042;28;20448;-80
2022/06/16 03:12:08;;;;;;;1.10;0.70;;;17.30;86.50;;;;;;5075995;28;20452;-80
2022/06/16 03:14:36;;;;;;;0.50;0.50;;;17.30;86.60;;;;;;5076378;28;20488;-80
2022/06/16 03:17:03;;;;;;;1.10;1.00;;;17.40;88.30;;;;;;5075517;28;20999;-80
2022/06/16 03:19:31;;;;;;;0.97;0.70;;;17.40;88.40;;;;;;5075856;28;20453;-80
2022/06/16 03:21:58;;;;;;;0.83;0.83;;;17.40;90.00;;;;;;5075848;28;20496;-80
2022/06/16 03:24:26;;;;;;;1.10;1.00;;;17.40;90.70;;;;;;5075712;28;20473;-80
2022/06/16 03:26:52;;;;;;;0.90;0.67;;;17.40;90.70;;;;;;5075753;28;20445;-80
2022/06/16 03:29:19;;;;;;;0.93;0.83;;;17.30;91.00;;;;;;5075665;28;20460;-80
2022/06/16 03:31:46;;;;;;;0.70;0.60;;;17.30;90.90;;;;;;5075666;28;20449;-80
2022/06/16 03:34:13;;;;;;;1.00;0.60;;;17.30;90.40;;;;;;5075514;28;20475;-80
2022/06/16 03:36:41;;;;;;;1.40;0.90;;;17.30;91.40;;;;;;5075077;28;20496;-80
2022/06/16 03:39:08;;;;;;;1.03;0.93;;;17.20;91.60;;;;;;5075182;28;20971;-80
2022/06/16 03:41:35;;;;;;;1.60;0.90;;;17.20;91.80;;;;;;5075475;28;20809;-80
2022/06/16 03:44:02;;;;;;;0.80;0.63;;;17.20;92.20;;;;;;5075881;28;20473;-80
2022/06/16 03:46:29;;;;;;;0.70;0.67;;;17.30;93.00;;;;;;5075372;28;20441;-80
2022/06/16 03:48:55;;;;;;;1.10;0.70;;;17.30;92.80;;;;;;5075358;28;20948;-80
2022/06/16 03:51:22;;;;;;;0.70;0.70;;;17.30;92.50;;;;;;5075267;28;20456;-80
2022/06/16 03:53:50;;;;;;;0.90;0.90;;;17.40;92.40;;;;;;5075159;28;20456;-80
2022/06/16 03:56:17;;;;;;;0.80;0.80;;;17.40;92.40;;;;;;5075072;28;20481;-80
2022/06/16 03:58:44;;;;;;;2.00;1.00;;;17.50;93.00;;;;;;5075128;28;20453;-80
2022/06/16 04:01:11;;;;;;;1.33;0.60;;;17.60;93.00;;;;;;5075087;28;20783;-80
2022/06/16 04:06:22;;;;;;;0.70;0.70;;;17.70;92.20;;;;;;5075029;28;20397;-80
2022/06/16 04:08:50;;;;;;;0.60;0.60;;;17.70;91.90;;;;;;5074875;28;20444;-80
2022/06/16 04:11:30;;;;;;;0.40;0.40;;;17.80;91.70;;;;;;5074710;28;20452;-80
2022/06/16 04:14:02;;;;;;;1.20;0.80;;;17.90;91.30;;;;;;5074772;28;20500;-80
2022/06/16 04:16:31;;;;;;;1.00;0.90;;;17.90;91.30;;;;;;5074708;28;20534;-80
2022/06/16 04:18:59;;;;;;;0.80;0.80;;;18.00;89.10;;;;;;5074437;28;20498;-80
2022/06/16 04:21:25;;;;;;;0.70;0.70;;;18.00;87.10;;;;;;5074365;28;20460;-80
2022/06/16 04:23:54;;;;;;;2.27;0.97;;;18.00;86.40;;;;;;5074577;28;20461;-80
2022/06/16 04:26:21;;;;;;;0.87;0.87;;;18.10;86.40;;;;;;5074571;28;20448;-80
2022/06/16 04:28:48;;;;;;;0.90;0.77;;;18.10;85.90;;;;;;5074523;28;20457;-80
2022/06/16 04:31:15;;;;;;;0.50;0.50;;;18.10;88.10;;;;;;5074457;28;20468;-80
2022/06/16 04:33:42;;;;;;;0.63;0.63;;;18.10;89.50;;;;;;5074348;28;20451;-80
2022/06/16 04:36:10;;;;;;;1.17;1.10;;;18.10;87.10;;;;;;5073932;28;20504;-80
2022/06/16 04:38:37;;;;;;;1.53;0.90;;;18.20;86.20;;;;;;5074012;28;20448;-80
2022/06/16 04:41:05;;;;;;;2.00;1.23;;;18.20;88.30;;;;;;5073957;28;20971;-80
2022/06/16 04:43:32;;;;;;;1.17;1.17;;;18.30;91.10;;;;;;5073810;28;20839;-80
2022/06/16 04:46:00;;;;;;;0.70;0.70;;;18.40;91.20;;;;;;5073884;28;20437;-80
2022/06/16 04:48:27;;;;;;;0.87;0.87;;;18.40;90.00;;;;;;5073774;28;20464;-80
2022/06/16 04:50:54;;;;;;;1.30;1.10;;;18.50;90.00;;;;;;5073791;28;20967;-80
2022/06/16 04:53:21;;;;;;;2.40;1.20;;;18.50;90.10;;;;;;5074035;28;20451;-80
2022/06/16 04:55:53;;;;;;;1.60;1.17;;;18.60;90.60;;;;;;5073791;28;20484;-80
2022/06/16 04:58:22;;;;;;;1.33;1.23;;;18.70;90.90;;;;;;5074004;28;20429;-80
2022/06/16 05:00:49;;;;;;;0.90;0.77;;;18.70;90.50;;;;;;5073876;28;20448;-80
2022/06/16 05:03:17;;;;;;;1.20;1.10;;;18.90;90.00;;;;;;5073845;28;20460;-80
2022/06/16 05:05:45;;;;;;;1.43;1.33;;;19.00;88.90;;;;;;5073772;28;20476;-80
2022/06/16 05:08:11;;;;;;;1.30;1.20;;;19.10;90.40;;;;;;5073500;28;20445;-80
2022/06/16 05:10:38;;;;;;;0.77;0.77;;;19.20;90.80;;;;;;5073788;28;20453;-80
2022/06/16 05:13:05;;;;;;;1.20;1.10;;;19.20;91.40;;;;;;5073723;28;20449;-80
2022/06/16 05:15:33;;;;;;;1.27;1.17;;;19.10;91.80;;;;;;5073585;28;20469;-80
2022/06/16 05:18:00;;;;;;;2.50;1.20;;;19.00;92.20;;;;;;5073636;28;20445;-80
2022/06/16 05:20:27;;;;;;;1.13;0.97;;;19.00;91.90;;;;;;5073619;28;20452;-80
2022/06/16 05:22:53;;;;;;;0.73;0.73;;;19.00;92.10;;;;;;5072785;28;20975;-80
2022/06/16 05:25:20;;;;;;;2.97;1.07;;;19.10;92.60;;;;;;5073474;28;20467;-80
2022/06/16 05:27:47;;;;;;;0.90;0.90;;;19.20;92.70;;;;;;5073587;28;20421;-80
2022/06/16 05:30:14;;;;;;;0.80;0.80;;;19.20;93.10;;;;;;5073213;28;20959;-80
2022/06/16 05:32:42;;;;;;;0.90;0.67;;;19.20;93.60;;;;;;5073145;28;20479;-80
2022/06/16 05:35:09;;;;;;;2.00;1.43;;;19.20;93.40;;;;;;5073356;28;20815;-80
2022/06/16 05:37:36;;;;;;;1.50;1.30;;;19.30;93.40;;;;;;5073427;28;20468;-80
2022/06/16 05:40:04;;;;;;;0.60;0.60;;;19.40;93.50;;;;;;5073407;28;20448;-80
2022/06/16 05:42:31;;;;;;;0.80;0.80;;;19.40;93.50;;;;;;5073416;28;20447;-80
2022/06/16 05:44:58;;;;;;;1.50;1.40;;;19.40;93.00;;;;;;5073287;28;20468;-80
2022/06/16 05:47:25;;;;;;;0.80;0.80;;;19.40;93.00;;;;;;5073337;28;20440;-80
2022/06/16 05:49:53;;;;;;;0.90;0.90;;;19.40;93.40;;;;;;5073308;28;20456;-80
2022/06/16 05:52:22;;;;;;;0.80;0.80;;;19.40;93.10;;;;;;5073311;28;20452;-80
2022/06/16 05:54:49;;;;;;;0.80;0.80;;;19.60;93.10;;;;;;5073392;28;20473;-84
2022/06/16 05:57:16;;;;;;;1.57;0.77;;;19.70;93.70;;;;;;5073073;28;20878;-85
2022/06/16 05:59:42;;;;;;;0.73;0.70;;;19.80;94.40;;;;;;5072984;28;20967;-85
2022/06/16 06:02:15;;;;;;;0.90;0.90;;;19.80;94.60;;;;;;5073331;28;20451;-85
2022/06/16 06:04:42;;;;;;;0.80;0.80;;;19.90;95.50;;;;;;5073315;28;20476;-85
2022/06/16 06:07:10;;;;;;;0.80;0.80;;;20.00;95.60;;;;;;5073255;28;20445;-85
2022/06/16 06:16:25;;;;;;;1.00;1.00;;;20.10;95.60;;;;;;5073231;28;20412;-85
2022/06/16 06:18:30;;;;;;;1.00;0.90;;;20.10;95.20;;;;;;5010992;28;20871;-85
2022/06/16 06:20:57;;;;;;;0.60;0.60;;;20.20;95.70;;;;;;5011087;28;20443;-85
2022/06/16 06:23:25;;;;;;;0.90;0.70;;;20.40;95.50;;;;;;5037959;28;20447;-85
2022/06/16 06:25:53;;;;;;;1.03;0.97;;;20.80;94.90;;;;;;5073003;28;20471;-85
2022/06/16 06:28:23;;;;;;;0.80;0.80;;;21.40;94.30;;;;;;5073026;28;20198;-81
2022/06/16 06:30:49;;;;;;;1.33;1.00;;;22.00;93.00;;;;;;5072928;28;20340;-81
2022/06/16 06:33:16;;;;;;;1.10;1.10;;;22.60;90.50;;;;;;5072563;28;20701;-81
2022/06/16 06:35:43;;;;;;;1.00;1.00;;;23.20;86.60;;;;;;5074247;28;20610;-81
2022/06/16 06:38:10;;;;;;;1.65;1.55;;;23.60;85.70;;;;;;5076601;28;20229;-81
2022/06/16 06:40:38;;;;;;;1.75;1.65;;;24.10;83.60;;;;;;5076273;28;20202;-81
2022/06/16 06:43:06;;;;;;;1.88;1.15;;;24.40;79.50;;;;;;5076271;28;20255;-81
2022/06/16 06:45:33;;;;;;;1.30;1.23;;;24.80;79.50;;;;;;5076121;28;20708;-81
2022/06/16 06:48:01;;;;;;;1.60;1.30;;;25.00;80.80;;;;;;5076418;28;20198;-81
2022/06/16 06:50:31;;;;;;;0.90;0.90;;;25.20;80.80;;;;;;5076068;28;20684;-81
2022/06/16 06:52:58;;;;;;;0.70;0.70;;;25.50;78.10;;;;;;5076364;28;20206;-81
2022/06/16 06:55:25;;;;;;;3.70;1.00;;;25.60;77.50;;;;;;5076270;28;20222;-81
2022/06/16 06:57:54;;;;;;;1.13;1.02;;;25.90;76.40;;;;;;5075888;28;20702;-81
2022/06/16 07:00:23;;;;;;;1.65;1.27;;;26.00;75.30;;;;;;5076220;28;20207;-81
2022/06/16 07:02:50;;;;;;;0.85;0.85;;;25.80;77.70;;;;;;5076209;28;20195;-81
2022/06/16 07:05:17;;;;;;;0.90;0.90;;;25.50;77.20;;;;;;5075766;28;20231;-81
2022/06/16 07:07:45;;;;;;;1.30;1.20;;;25.20;79.50;;;;;;5076177;28;20190;-81
2022/06/16 07:10:12;;;;;;;2.15;1.30;;;24.80;80.50;;;;;;5075768;28;20216;-81
2022/06/16 07:12:38;;;;;;;1.30;1.20;;;24.60;82.40;;;;;;5076021;28;20202;-81
2022/06/16 07:15:07;;;;;;;1.10;1.00;;;24.40;84.30;;;;;;5075887;28;20229;-81
2022/06/16 07:17:34;;;;;;;1.10;1.00;;;24.20;83.10;;;;;;5075899;28;20206;-81
2022/06/16 07:20:01;;;;;;;1.08;1.00;;;24.00;82.50;;;;;;5075534;28;20574;-81
2022/06/16 07:22:28;;;;;;;1.33;1.23;;;23.90;83.50;;;;;;5075829;28;20205;-81
2022/06/16 07:24:55;;;;;;;1.17;1.08;;;23.90;83.00;;;;;;5075452;28;20727;-82
2022/06/16 07:27:22;;;;;;;1.35;1.25;;;24.00;83.60;;;;;;5075768;28;20225;-81
2022/06/16 07:29:49;;;;;;;2.45;1.00;;;24.20;85.10;;;;;;5075730;28;20236;-81
2022/06/16 07:32:19;;;;;;;2.00;1.10;;;24.40;84.50;;;;;;5075648;28;20198;-81
2022/06/16 07:34:45;;;;;;;1.45;1.35;;;24.50;85.60;;;;;;5076308;28;20225;-81
2022/06/16 07:37:13;;;;;;;1.98;1.25;;;24.60;86.10;;;;;;5075248;28;20263;-81
2022/06/16 07:39:40;;;;;;;1.20;1.10;;;24.60;86.40;;;;;;5075493;28;20197;-81
2022/06/16 07:42:08;;;;;;;1.15;1.13;;;24.90;87.00;;;;;;5075735;28;20194;-81
2022/06/16 07:44:36;;;;;;;1.35;1.25;;;25.20;85.30;;;;;;5075048;28;20558;-81
2022/06/16 07:47:03;;;;;;;1.65;1.20;;;25.40;86.00;;;;;;5074959;28;20183;-81
2022/06/16 07:49:32;;;;;;;1.25;1.15;;;25.80;85.30;;;;;;5075058;28;20197;-81
2022/06/16 07:51:59;;;;;;;0.98;0.98;;;26.00;84.40;;;;;;5075233;28;20298;-81
2022/06/16 07:54:27;;;;;;;1.42;1.27;;;26.40;84.00;;;;;;5075195;28;20229;-81
2022/06/16 07:56:54;;;;;;;8.82;1.30;;;27.00;83.00;;;;;;5074806;28;20762;-81
2022/06/16 07:59:20;;;;;;;1.55;1.45;;;27.50;82.60;;;;;;5074837;28;20207;-81
2022/06/16 08:01:47;;;;;;;1.42;1.33;;;27.90;81.00;;;;;;5075090;28;20208;-81
2022/06/16 08:04:15;;;;;;;2.05;1.30;;;28.10;79.00;;;;;;5074909;28;20742;-81
2022/06/16 08:06:44;;;;;;;2.00;1.20;;;28.40;77.10;;;;;;5074660;28;20552;-81
2022/06/16 08:09:11;;;;;;;1.40;1.30;;;28.40;74.50;;;;;;5074916;28;20212;-81
2022/06/16 08:14:23;;;;;;;1.42;1.33;;;28.70;75.60;;;;;;5075005;28;20253;-81
2022/06/16 08:16:50;;;;;;;2.17;1.60;;;29.30;74.90;;;;;;5074722;28;20235;-81
2022/06/16 08:19:16;;;;;;;1.63;1.50;;;29.90;72.40;;;;;;5074760;28;20284;-81
2022/06/16 08:21:44;;;;;;;1.40;1.30;;;30.40;70.70;;;;;;5074708;28;20202;-81
2022/06/16 08:24:12;;;;;;;1.83;1.67;;;30.70;71.10;;;;;;5074569;28;20212;-81
2022/06/16 08:26:39;;;;;;;1.75;1.63;;;31.20;70.90;;;;;;5074678;28;20211;-81
2022/06/16 08:29:08;;;;;;;3.10;2.35;;;31.40;68.30;;;;;;5074800;28;20198;-81
2022/06/16 08:31:35;;;;;;;3.10;2.03;;;31.50;67.20;;;;;;5075220;28;20218;-81
2022/06/16 08:34:02;;;;;;;1.65;1.55;;;31.60;69.00;;;;;;5074386;28;20227;-81
2022/06/16 08:36:29;;;;;;;1.73;1.63;;;31.60;66.90;;;;;;5073997;28;20244;-81
2022/06/16 08:38:57;;;;;;;1.75;1.63;;;31.50;67.20;;;;;;5073953;28;20721;-80
2022/06/16 08:41:28;;;;;;;1.98;1.88;;;31.40;66.90;;;;;;5074298;28;20205;-81
2022/06/16 08:44:12;;;;;;;1.67;1.38;;;31.30;68.00;;;;;;5074226;28;20219;-81
2022/06/16 08:46:44;;;;;;;2.63;2.15;;;31.20;66.90;;;;;;5074220;28;20190;-81
2022/06/16 08:49:21;;;;;;;1.27;1.17;;;31.20;66.10;;;;;;5074194;28;20197;-82
2022/06/16 08:52:03;;;;;;;2.00;1.90;;;31.80;64.30;;;;;;5074231;28;20182;-81
2022/06/16 08:54:42;;;;;;;1.48;1.38;;;32.10;63.70;;;;;;5074001;28;20226;-82
2022/06/16 08:57:13;;;;;;;2.00;1.90;;;32.10;63.70;;;;;;5073213;28;20682;-81
2022/06/16 08:59:46;;;;;;;1.83;1.73;;;31.80;62.70;;;;;;5073423;28;20186;-81
2022/06/16 09:02:18;;;;;;;1.88;1.77;;;31.70;63.50;;;;;;5073664;28;20187;-81
2022/06/16 09:04:50;;;;;;;1.80;1.70;;;31.30;64.00;;;;;;5073861;28;20301;-81
2022/06/16 09:07:25;;;;;;;1.83;1.67;;;30.60;62.60;;;;;;5073851;28;20192;-81
2022/06/16 09:10:15;;;;;;;1.50;1.40;;;30.30;63.90;;;;;;5073556;28;20189;-81
2022/06/16 09:12:58;;;;;;;1.60;1.50;;;30.20;62.30;;;;;;5073807;28;20193;-81
2022/06/16 09:15:33;;;;;;;1.20;1.17;;;29.80;63.80;;;;;;5073386;28;20594;-81
2022/06/16 09:18:18;;;;;;;1.75;1.65;;;29.50;62.70;;;;;;5073355;28;20212;-82
2022/06/16 09:20:50;;;;;;;1.75;1.65;;;29.50;64.40;;;;;;5073484;28;20655;-81
2022/06/16 09:23:35;;;;;;;1.52;1.50;;;29.70;64.50;;;;;;5073329;28;20556;-81
2022/06/16 09:26:16;;;;;;;1.85;1.40;;;30.00;64.20;;;;;;5073617;28;20190;-81
2022/06/16 09:28:47;;;;;;;2.13;1.90;;;30.10;63.30;;;;;;5073593;28;20186;-81
2022/06/16 09:31:19;;;;;;;1.40;1.30;;;30.10;62.70;;;;;;5074386;28;20197;-81
2022/06/16 09:33:51;;;;;;;1.55;1.10;;;29.90;62.40;;;;;;5073482;28;20192;-82
2022/06/16 09:36:22;;;;;;;1.35;1.25;;;29.70;61.60;;;;;;5073148;28;20238;-82
2022/06/16 09:38:55;;;;;;;2.28;2.08;;;29.40;62.00;;;;;;5073146;28;20202;-82
2022/06/16 09:44:18;;;;;;;1.58;1.48;;;29.40;62.50;;;;;;5073406;28;20268;-83
2022/06/16 09:46:48;;;;;;;1.35;1.02;;;29.30;62.10;;;;;;5073702;28;20192;-83
2022/06/16 09:49:21;;;;;;;1.77;1.67;;;29.20;63.30;;;;;;5073397;28;20220;-82
2022/06/16 09:51:52;;;;;;;3.08;1.15;;;29.00;64.50;;;;;;5073043;28;20739;-83
2022/06/16 09:54:21;;;;;;;1.33;1.23;;;28.90;65.40;;;;;;5073253;28;20233;-83
2022/06/16 09:56:54;;;;;;;1.85;1.75;;;28.80;64.00;;;;;;5072925;28;20581;-83
2022/06/16 09:59:32;;;;;;;3.63;1.52;;;28.80;65.50;;;;;;5073234;28;20201;-83
2022/06/16 10:02:02;;;;;;;1.25;1.20;;;28.60;62.80;;;;;;5074025;28;20187;-83
2022/06/16 10:04:30;;;;;;;1.58;1.48;;;28.60;64.90;;;;;;5073348;28;20228;-83
2022/06/16 10:07:08;;;;;;;3.45;1.25;;;28.70;67.10;;;;;;5073208;28;20213;-83
2022/06/16 10:09:41;;;;;;;1.33;1.27;;;28.70;66.10;;;;;;5075041;28;20237;-83
2022/06/16 10:12:20;;;;;;;1.30;1.20;;;28.80;65.80;;;;;;5076970;28;20674;-83
2022/06/16 10:14:52;;;;;;;1.98;1.88;;;29.00;66.00;;;;;;5077108;28;20220;-83
2022/06/16 10:17:22;;;;;;;1.38;1.27;;;29.10;65.00;;;;;;5076738;28;20201;-82
2022/06/16 10:19:49;;;;;;;1.50;1.27;;;29.10;64.80;;;;;;5077040;28;20206;-83
2022/06/16 10:22:19;;;;;;;2.03;1.83;;;29.20;64.60;;;;;;5076774;28;20205;-83
2022/06/16 10:24:49;;;;;;;6.15;1.75;;;29.00;63.40;;;;;;5076928;28;20227;-83
2022/06/16 10:27:20;;;;;;;1.50;1.40;;;29.00;64.90;;;;;;5076980;28;20196;-82
2022/06/16 10:29:56;;;;;;;1.90;1.80;;;29.10;64.40;;;;;;5076894;28;20544;-82
2022/06/16 10:32:41;;;;;;;1.30;1.20;;;29.00;62.30;;;;;;5076662;28;20648;-83
2022/06/16 10:35:15;;;;;;;1.88;1.60;;;28.90;63.50;;;;;;5076193;28;20232;-83
2022/06/16 10:37:43;;;;;;;1.58;1.48;;;28.90;64.20;;;;;;5076682;28;20207;-82
2022/06/16 10:40:15;;;;;;;1.50;1.40;;;28.90;65.30;;;;;;5076330;28;20211;-82
2022/06/16 10:42:46;;;;;;;1.98;1.30;;;28.80;65.60;;;;;;5076661;28;20192;-82
2022/06/16 10:45:15;;;;;;;1.85;1.75;;;28.90;64.80;;;;;;5076189;28;20229;-82
2022/06/16 10:47:49;;;;;;;1.83;1.20;;;28.90;64.90;;;;;;5076184;28;20635;-83
2022/06/16 10:50:21;;;;;;;2.70;2.05;;;28.90;64.90;;;;;;5076520;28;20215;-82
2022/06/16 10:52:53;;;;;;;1.65;1.55;;;29.00;65.70;;;;;;5076499;28;20366;-83
2022/06/16 10:55:23;;;;;;;3.10;1.52;;;29.20;64.10;;;;;;5076304;28;20232;-83
2022/06/16 10:58:00;;;;;;;1.60;1.50;;;29.60;62.60;;;;;;5075970;28;20213;-83
2022/06/16 11:00:32;;;;;;;3.13;1.95;;;30.10;62.40;;;;;;5076318;28;20194;-82
2022/06/16 11:03:15;;;;;;;1.52;1.33;;;30.40;60.90;;;;;;5076226;28;20187;-83
2022/06/16 11:05:51;;;;;;;1.60;1.50;;;31.00;59.60;;;;;;5076079;28;20229;-82
2022/06/16 11:08:19;;;;;;;1.85;1.75;;;31.00;59.60;;;;;;5076225;28;20190;-82
2022/06/16 11:10:54;;;;;;;2.00;1.90;;;31.00;62.10;;;;;;5076260;28;20213;-82
2022/06/16 11:13:27;;;;;;;2.20;2.10;;;30.70;63.30;;;;;;5076144;28;20193;-82
2022/06/16 11:15:54;;;;;;;1.65;1.55;;;30.50;62.20;;;;;;5075958;28;20225;-82
2022/06/16 11:18:24;;;;;;;1.45;1.35;;;30.40;61.20;;;;;;5076056;28;20214;-82
2022/06/16 11:20:53;;;;;;;1.90;1.73;;;30.10;62.80;;;;;;5075006;28;20202;-83
2022/06/16 11:23:28;;;;;;;1.20;1.20;;;29.60;62.60;;;;;;5075873;28;20210;-82
2022/06/16 11:25:59;;;;;;;1.50;1.50;;;29.50;62.90;;;;;;5075777;28;20222;-82
2022/06/16 11:28:28;;;;;;;1.80;1.67;;;29.30;64.40;;;;;;5075846;28;20194;-82
2022/06/16 11:31:00;;;;;;;1.83;1.73;;;29.30;65.50;;;;;;5075700;28;20208;-83
2022/06/16 11:36:24;;;;;;;1.27;1.17;;;29.20;65.50;;;;;;5075575;28;20242;-82
2022/06/16 11:38:57;;;;;;;1.77;1.65;;;29.00;65.50;;;;;;5075557;28;20213;-82
2022/06/16 11:41:26;;;;;;;1.23;1.13;;;29.10;66.20;;;;;;5075660;28;20196;-83
2022/06/16 11:44:09;;;;;;;2.90;1.50;;;29.10;65.00;;;;;;5075480;28;20196;-82
2022/06/16 11:46:42;;;;;;;1.38;1.27;;;29.20;64.40;;;;;;5075499;28;20188;-82
2022/06/16 11:49:19;;;;;;;1.52;1.42;;;29.00;63.70;;;;;;5075393;28;20591;-82
2022/06/16 11:51:56;;;;;;;2.90;1.52;;;28.90;65.30;;;;;;5075423;28;20186;-82
2022/06/16 11:54:34;;;;;;;1.33;1.23;;;28.80;64.30;;;;;;5075259;28;20230;-82
2022/06/16 11:57:10;;;;;;;1.85;1.75;;;28.70;64.10;;;;;;5075120;28;20680;-82
2022/06/16 12:00:02;;;;;;;1.33;1.33;;;28.60;65.20;;;;;;5075220;28;20206;-83
2022/06/16 12:02:55;;;;;;;1.48;1.42;;;28.60;65.50;;;;;;5075118;28;20228;-83
2022/06/16 12:05:33;;;;;;;1.70;1.60;;;28.50;66.80;;;;;;5074999;28;20222;-82
2022/06/16 12:08:15;;;;;;;2.35;1.45;;;28.50;67.40;;;;;;5075025;28;20183;-82
2022/06/16 12:10:46;;;;;;;1.73;1.63;;;28.50;66.60;;;;;;5074930;28;20190;-82
2022/06/16 12:13:21;;;;;;;1.92;1.67;;;28.40;65.60;;;;;;5075673;28;20198;-82
2022/06/16 12:15:55;;;;;;;1.40;1.30;;;28.40;66.00;;;;;;5074838;28;20218;-83
2022/06/16 12:18:39;;;;;;;1.73;1.60;;;28.20;66.50;;;;;;5074466;28;20575;-82
2022/06/16 12:21:14;;;;;;;2.58;1.65;;;28.20;65.40;;;;;;5074543;28;20190;-82
2022/06/16 12:23:47;;;;;;;1.40;1.30;;;28.00;66.20;;;;;;5074670;28;20569;-82
2022/06/16 12:26:20;;;;;;;1.55;1.30;;;28.00;65.70;;;;;;5074679;28;20189;-82
2022/06/16 12:28:55;;;;;;;1.10;1.10;;;28.00;67.00;;;;;;5074865;28;20209;-81
2022/06/16 12:31:31;;;;;;;1.63;1.52;;;28.00;66.90;;;;;;5074598;28;20182;-82
2022/06/16 12:34:06;;;;;;;1.55;1.45;;;27.90;65.90;;;;;;5074390;28;20222;-81
2022/06/16 12:36:36;;;;;;;1.10;1.10;;;27.90;65.40;;;;;;5074231;28;20229;-81
2022/06/16 12:39:09;;;;;;;1.40;1.30;;;27.90;65.00;;;;;;5074249;28;20225;-82
2022/06/16 12:41:39;;;;;;;2.38;1.55;;;27.80;65.90;;;;;;5074394;28;20190;-81
2022/06/16 12:44:14;;;;;;;1.77;1.67;;;27.80;65.60;;;;;;5075512;28;20222;-81
2022/06/16 12:46:47;;;;;;;1.40;1.30;;;27.50;66.50;;;;;;5073987;28;20584;-82
2022/06/16 12:49:21;;;;;;;1.58;1.33;;;27.50;66.40;;;;;;5073811;28;20186;-81
2022/06/16 12:51:52;;;;;;;1.67;1.58;;;27.50;66.00;;;;;;5074110;28;20265;-82
2022/06/16 12:54:24;;;;;;;2.25;1.70;;;27.50;66.40;;;;;;5074036;28;20222;-82
2022/06/16 12:56:55;;;;;;;1.77;1.67;;;27.50;64.90;;;;;;5074129;28;20194;-82
2022/06/16 12:59:26;;;;;;;1.50;1.33;;;27.40;64.70;;;;;;5073988;28;20210;-83
2022/06/16 13:01:58;;;;;;;1.30;1.20;;;27.40;63.60;;;;;;5074275;28;20194;-83
2022/06/16 13:04:27;;;;;;;1.42;1.33;;;27.40;63.30;;;;;;5073881;28;20229;-84
2022/06/16 13:06:55;;;;;;;1.52;1.42;;;27.40;64.30;;;;;;5073859;28;20202;-84
2022/06/16 13:09:24;;;;;;;1.02;1.02;;;27.30;62.10;;;;;;5073455;28;20280;-83
2022/06/16 13:11:55;;;;;;;1.35;1.25;;;27.30;63.00;;;;;;5073790;28;20247;-84
2022/06/16 13:14:27;;;;;;;1.90;1.80;;;27.30;61.80;;;;;;5073392;28;20237;-83
2022/06/16 13:16:58;;;;;;;1.83;1.55;;;27.20;62.30;;;;;;5073733;28;20194;-83
2022/06/16 13:19:27;;;;;;;1.50;1.40;;;27.20;61.80;;;;;;5073677;28;20213;-85
2022/06/16 13:22:00;;;;;;;2.38;1.35;;;27.20;62.10;;;;;;5073360;28;20205;-84
2022/06/16 13:24:38;;;;;;;2.30;1.60;;;27.10;61.00;;;;;;5073269;28;20254;-83
2022/06/16 13:27:09;;;;;;;0.90;0.88;;;27.10;59.40;;;;;;5074170;28;20533;-83